Terminal Aerodrome Forecast
Issued by NWS Wichita, KS

Home | Current Version | Previous Version | Graphics & Text | Print | Product List | Glossary On
Versions: 1 2 3 4 5 6 7 8 9 10 11 12 13
319
FTUS43 KICT 120522
TAFICT
TAF
KICT 120522Z 1206/1306 35014KT P6SM SCT035
     FM120900 34008KT P6SM SKC
     FM121800 29012KT P6SM SKC
     FM122300 24008KT P6SM SKC=

USA.gov is the U.S. government's official web portal to all federal, state and local government web resources and services.